aviador You're here:

KMAW Decoded Metar

in
Report Time2017-12-16 18:55:00
UTC Time2017-12-16 18:44:38
Flight Rules vfr VFR
Wind210° at 13 Gusting to 17 kt
W.Decomp.*RWY 18: 11.3 kt HW 6.5 kt RCW
RWY 14: 4.4 kt HW 12.2 kt RCW
W.Rank210° ranks 5
Current wind is above 210° avg. (9.7)
Visibility9999 m
Phenomena:N/A
Clouds:N/A
Expected CloudBase > 4,000 ft AGL from Temp-Dew spread
CeilingNone
Temp10°C
Dew Point00°C (50% RH)
AAT3.3°C
QNH1021 hPa
Raw Report
KMAW 161855Z AUTO 21013G17KT 10SM CLR 10/00 A3014 RMK AO2=

Extra information for KMAW:More info

Social comments